Amherst, Colorado
Current Conditions -  °F | °C
As of 10:37 PM on Wednesday 17 Dec 2014 (Local Time) from KIML Reporting Station
Haze Haze  
Wind Chill: 16°   Ceiling: 200
Heat Index: 24°   Visibility: 2mi
Dew Point: 21°   Wind: 7mph
Humidity: 88%   Direction: 180°S
Pressure: 30.08"   Gusts: NA
Location:  40.68°N, 102.17°W
Report Text: KIML 180537Z AUTO 18006KT 2SM BR OVC002 M04/M06 A3008 RMK AO2 I1001 T10441061
Loading
Personal Weather Stations






























Interactive Weather Map New forecast layout! Learn more

10-Day Weather Forecast

Advertisements
Track Severe Weather on mobile